Terminal Aerodrome Forecast
Issued by NWS

Home | Current Version | Previous Version | Text Only | Print | Product List | Glossary On
Versions: 1 2 3 4 5 6 7 8 9 10 11 12 13 14
000
FTUS45 KTFX 180526
TAFGTF
TAF
KGTF 180526Z 1806/1906 22027G41KT P6SM SCT080 OVC120
     FM181900 25019G30KT P6SM SCT060 BKN120
     FM190000 31010KT P6SM SCT030 OVC050 PROB30 1900/1906 4SM -RASN
      BR SCT015 OVC030=

USA.gov is the U.S. government's official web portal to all federal, state and local government web resources and services.